createdAt,value
2018-12-17T00:00:15.230Z,24.27
2018-12-17T00:02:44.757Z,29.10
2018-12-17T00:05:13.584Z,21.77
2018-12-17T00:07:42.540Z,26.00
2018-12-17T00:10:11.492Z,22.70
2018-12-17T00:12:40.175Z,23.37
2018-12-17T00:15:08.831Z,22.77
2018-12-17T00:17:37.588Z,25.40
2018-12-17T00:20:07.545Z,27.90
2018-12-17T00:22:36.473Z,25.97
2018-12-17T00:25:05.378Z,20.50
2018-12-17T00:27:34.397Z,24.63
2018-12-17T00:30:06.711Z,20.80
2018-12-17T00:32:35.557Z,25.07
2018-12-17T00:35:04.846Z,21.20
2018-12-17T00:37:34.510Z,17.50
2018-12-17T00:42:56.926Z,21.23
2018-12-17T00:45:26.533Z,17.77
2018-12-17T00:47:56.141Z,21.23
2018-12-17T00:50:25.852Z,16.23
2018-12-17T00:52:55.301Z,15.83
2018-12-17T00:55:25.083Z,14.93
2018-12-17T00:57:54.537Z,14.60
2018-12-17T01:00:24.896Z,22.63
2018-12-17T01:02:53.758Z,13.67
2018-12-17T01:05:22.477Z,14.00
2018-12-17T01:07:51.304Z,15.97
2018-12-17T01:10:20.028Z,15.30
2018-12-17T01:15:35.482Z,29.30
2018-12-17T01:18:04.269Z,20.97
2018-12-17T01:20:33.067Z,16.37
2018-12-17T01:23:02.744Z,18.90
2018-12-17T01:25:31.480Z,16.13
2018-12-17T01:28:00.438Z,20.97
2018-12-17T01:30:31.055Z,17.87
2018-12-17T01:32:59.943Z,24.07
2018-12-17T01:35:28.868Z,26.20
2018-12-17T01:37:58.531Z,16.63
2018-12-17T01:40:28.442Z,15.70
2018-12-17T01:42:57.473Z,18.97
2018-12-17T01:45:26.246Z,21.50
2018-12-17T01:47:55.190Z,18.13
2018-12-17T01:50:23.927Z,19.03
2018-12-17T01:52:52.724Z,19.87
2018-12-17T01:55:21.401Z,23.03
2018-12-17T01:57:50.038Z,24.73
2018-12-17T02:00:18.919Z,33.83
2018-12-17T02:02:47.697Z,30.07
2018-12-17T02:05:16.359Z,17.03
2018-12-17T02:07:45.833Z,16.30
2018-12-17T02:10:14.750Z,14.67
2018-12-17T02:12:48.879Z,18.57
2018-12-17T02:15:17.922Z,19.07
2018-12-17T02:17:47.029Z,14.00
2018-12-17T02:20:16.560Z,22.67
2018-12-17T02:22:46.069Z,23.07
2018-12-17T02:25:16.237Z,24.93
2018-12-17T02:27:46.072Z,20.83
2018-12-17T02:30:17.936Z,22.37
2018-12-17T02:32:47.172Z,27.00
2018-12-17T02:35:17.110Z,17.57
2018-12-17T02:37:46.416Z,22.73
2018-12-17T02:40:15.953Z,20.13
2018-12-17T02:42:51.397Z,18.13
2018-12-17T02:45:34.828Z,22.60
2018-12-17T02:48:04.512Z,22.70
2018-12-17T02:50:34.091Z,22.03
2018-12-17T02:53:08.362Z,21.10
2018-12-17T02:55:37.841Z,17.00
2018-12-17T02:58:07.269Z,15.30
2018-12-17T03:00:39.539Z,15.20
2018-12-17T03:03:09.218Z,16.10
2018-12-17T03:05:42.339Z,15.13
2018-12-17T03:08:11.845Z,21.70
2018-12-17T03:23:28.338Z,20.73
2018-12-17T03:26:01.661Z,35.47
2018-12-17T03:28:35.154Z,47.20
2018-12-17T03:31:04.200Z,28.93
2018-12-17T03:33:33.210Z,23.37
2018-12-17T03:36:02.349Z,24.50
2018-12-17T03:38:31.348Z,21.50
2018-12-17T03:41:00.523Z,21.17
2018-12-17T03:43:29.904Z,18.13
2018-12-17T03:46:00.168Z,20.90
2018-12-17T03:48:29.832Z,27.97
2018-12-17T03:50:59.009Z,42.50
2018-12-17T03:53:28.329Z,35.60
2018-12-17T03:55:57.503Z,23.63
2018-12-17T03:58:26.439Z,27.57
2018-12-17T04:00:55.484Z,23.57
2018-12-17T04:03:24.508Z,31.10
2018-12-17T04:05:54.090Z,17.50
2018-12-17T04:08:23.045Z,17.33
2018-12-17T04:10:51.645Z,29.57
2018-12-17T04:13:23.042Z,19.27
2018-12-17T04:15:53.093Z,17.60
2018-12-17T04:18:23.371Z,15.67
2018-12-17T04:20:51.899Z,14.17
2018-12-17T04:23:21.043Z,23.90
2018-12-17T04:25:49.630Z,31.43
2018-12-17T04:28:19.252Z,23.47
2018-12-17T04:30:48.332Z,20.03
2018-12-17T04:33:17.332Z,22.47
2018-12-17T04:35:46.110Z,15.43
2018-12-17T04:38:14.986Z,26.13
2018-12-17T04:40:44.003Z,15.50
2018-12-17T04:43:12.972Z,20.30
2018-12-17T04:45:42.381Z,21.27
2018-12-17T04:48:11.494Z,19.33
2018-12-17T04:50:41.589Z,20.97
2018-12-17T04:53:11.126Z,23.47
2018-12-17T04:55:51.590Z,26.70
2018-12-17T04:58:21.301Z,33.37
2018-12-17T05:00:50.655Z,33.80
2018-12-17T05:03:40.789Z,31.63
2018-12-17T05:06:10.089Z,51.10
2018-12-17T05:08:39.696Z,29.53
2018-12-17T05:11:08.762Z,22.47
2018-12-17T05:13:39.424Z,26.77
2018-12-17T05:16:09.384Z,21.73
2018-12-17T05:18:40.482Z,31.57
2018-12-17T05:21:10.388Z,33.77
2018-12-17T05:23:40.738Z,40.80
2018-12-17T05:26:10.636Z,36.00
2018-12-17T05:28:42.480Z,29.20
2018-12-17T05:31:15.726Z,24.07
2018-12-17T05:33:46.114Z,24.73
2018-12-17T05:36:18.127Z,27.00
2018-12-17T05:38:47.061Z,33.77
2018-12-17T05:41:20.541Z,35.70
2018-12-17T05:43:55.711Z,24.60
2018-12-17T05:46:27.945Z,28.07
2018-12-17T05:48:58.866Z,29.67
2018-12-17T05:51:28.625Z,22.30
2018-12-17T05:53:57.814Z,22.60
2018-12-17T05:56:27.640Z,17.70
2018-12-17T05:58:56.361Z,17.53
2018-12-17T06:01:25.272Z,15.07
2018-12-17T06:03:54.105Z,15.73
2018-12-17T06:06:22.847Z,20.13
2018-12-17T06:08:51.484Z,19.80
2018-12-17T06:11:20.017Z,23.83
2018-12-17T06:13:48.902Z,18.70
2018-12-17T06:16:18.332Z,18.63
2018-12-17T06:18:48.569Z,17.17
2018-12-17T06:21:17.328Z,18.93
2018-12-17T06:23:46.219Z,16.87
2018-12-17T06:26:15.079Z,16.93
2018-12-17T06:28:45.333Z,20.73
2018-12-17T06:31:14.101Z,19.63
2018-12-17T06:33:43.672Z,22.93
2018-12-17T06:36:12.376Z,27.80
2018-12-17T06:41:43.659Z,19.47
2018-12-17T06:44:12.664Z,16.97
2018-12-17T06:46:42.075Z,14.23
2018-12-17T06:49:11.146Z,14.90
2018-12-17T06:51:41.673Z,15.13
2018-12-17T06:54:11.954Z,16.83
2018-12-17T06:56:41.562Z,17.70
2018-12-17T06:59:12.195Z,14.87
2018-12-17T07:01:42.209Z,15.63
2018-12-17T07:04:13.003Z,20.47
2018-12-17T07:06:54.471Z,19.20
2018-12-17T07:09:24.345Z,19.60
2018-12-17T07:11:53.851Z,19.03
2018-12-17T07:14:22.866Z,17.70
2018-12-17T07:16:55.440Z,17.40
2018-12-17T07:19:24.487Z,20.27
2018-12-17T07:21:54.737Z,20.20
2018-12-17T07:24:26.059Z,19.20
2018-12-17T07:26:55.116Z,19.33
2018-12-17T07:29:24.070Z,18.63
2018-12-17T07:31:53.429Z,14.87
2018-12-17T07:34:22.425Z,14.23
2018-12-17T07:36:51.819Z,12.77
2018-12-17T07:39:21.786Z,13.77
2018-12-17T07:41:50.936Z,60.10
2018-12-17T07:44:20.370Z,20.60
2018-12-17T07:46:52.089Z,22.67
2018-12-17T07:49:23.155Z,19.77
2018-12-17T08:00:34.452Z,21.93
2018-12-17T08:03:03.567Z,21.57
2018-12-17T08:05:33.723Z,21.30
2018-12-17T08:08:04.166Z,22.13
2018-12-17T08:13:18.917Z,19.10
2018-12-17T08:15:49.226Z,24.23
2018-12-17T08:18:25.638Z,16.20
2018-12-17T08:21:02.521Z,17.40
2018-12-17T08:23:32.675Z,13.83
2018-12-17T08:26:01.729Z,13.83
2018-12-17T08:28:30.892Z,12.23
2018-12-17T08:31:01.344Z,11.43
2018-12-17T08:33:30.719Z,11.53
2018-12-17T08:36:03.264Z,13.20
2018-12-17T08:38:33.555Z,8.80
2018-12-17T08:42:50.153Z,10.70
2018-12-17T08:45:30.466Z,9.50
2018-12-17T08:48:00.352Z,10.20
2018-12-17T08:50:29.841Z,10.23
2018-12-17T08:53:02.736Z,8.87
2018-12-17T08:55:32.913Z,8.97
2018-12-17T08:58:02.528Z,9.10
2018-12-17T09:00:32.154Z,8.87
2018-12-17T09:03:02.084Z,8.17
2018-12-17T09:05:32.409Z,8.80
2018-12-17T09:08:01.606Z,7.40
2018-12-17T09:10:31.465Z,9.70
2018-12-17T09:13:00.835Z,10.40
2018-12-17T09:15:30.311Z,10.00
2018-12-17T09:18:00.648Z,11.20
2018-12-17T09:20:31.178Z,11.40
2018-12-17T09:23:00.480Z,11.73
2018-12-17T09:25:29.657Z,9.00
2018-12-17T09:27:59.076Z,7.77
2018-12-17T09:30:28.484Z,8.20
2018-12-17T09:32:57.619Z,9.50
2018-12-17T09:35:28.187Z,8.00
2018-12-17T09:37:57.711Z,6.97
2018-12-17T09:40:27.362Z,6.37
2018-12-17T09:42:56.420Z,5.47
2018-12-17T09:45:26.948Z,6.00
2018-12-17T09:47:56.869Z,8.50
2018-12-17T09:50:26.162Z,7.67
2018-12-17T09:52:57.602Z,9.83
2018-12-17T09:55:32.224Z,10.90
2018-12-17T09:58:02.615Z,10.90
2018-12-17T10:00:32.528Z,9.53
2018-12-17T10:03:01.884Z,9.77
2018-12-17T10:05:31.488Z,12.63
2018-12-17T10:08:02.222Z,8.97
2018-12-17T10:10:31.764Z,10.67
2018-12-17T10:13:00.997Z,9.00
2018-12-17T10:15:31.548Z,8.93
2018-12-17T10:18:01.929Z,8.77
2018-12-17T10:20:32.204Z,9.80
2018-12-17T10:23:02.146Z,10.27
2018-12-17T10:25:31.803Z,9.87
2018-12-17T10:28:01.157Z,10.43
2018-12-17T10:30:32.635Z,10.77
2018-12-17T10:33:02.071Z,10.17
2018-12-17T10:35:31.368Z,11.00
2018-12-17T10:38:00.956Z,11.27
2018-12-17T10:40:30.263Z,10.90
2018-12-17T10:42:59.919Z,10.67
2018-12-17T10:45:29.396Z,8.37
2018-12-17T10:47:59.994Z,7.83
2018-12-17T10:50:29.498Z,7.43
2018-12-17T10:52:58.621Z,8.80
2018-12-17T10:55:27.937Z,5.90
2018-12-17T11:03:48.087Z,14.27
2018-12-17T11:06:18.899Z,8.90
2018-12-17T11:08:49.829Z,8.73
2018-12-17T11:11:26.273Z,8.40
2018-12-17T11:13:55.833Z,10.13
2018-12-17T11:16:25.316Z,13.83
2018-12-17T11:18:54.654Z,9.77
2018-12-17T11:21:23.956Z,7.93
2018-12-17T11:23:53.321Z,8.90
2018-12-17T11:26:22.824Z,6.90
2018-12-17T11:28:51.929Z,7.77
2018-12-17T11:31:21.803Z,6.13
2018-12-17T11:33:50.690Z,7.57
2018-12-17T11:36:20.194Z,6.87
2018-12-17T11:38:49.390Z,7.20
2018-12-17T11:41:18.734Z,6.43
2018-12-17T11:43:48.028Z,6.93
2018-12-17T11:46:17.399Z,5.97
2018-12-17T11:48:48.079Z,5.47
2018-12-17T11:51:17.979Z,6.17
2018-12-17T11:53:47.335Z,7.20
2018-12-17T11:56:16.783Z,7.63
2018-12-17T11:58:46.083Z,8.57
2018-12-17T12:01:15.458Z,5.00
2018-12-17T12:03:45.401Z,4.77
2018-12-17T12:06:14.959Z,4.97
2018-12-17T12:08:43.999Z,5.37
2018-12-17T12:11:13.172Z,5.30
2018-12-17T12:13:42.807Z,5.70
2018-12-17T12:16:12.160Z,5.10
2018-12-17T12:18:41.403Z,5.17
2018-12-17T12:21:12.543Z,4.70
2018-12-17T12:23:42.159Z,4.70
2018-12-17T12:26:11.664Z,4.87
2018-12-17T12:28:41.309Z,5.20
2018-12-17T12:31:10.674Z,7.57
2018-12-17T12:33:40.179Z,6.73
2018-12-17T12:36:09.888Z,7.53
2018-12-17T12:38:39.632Z,7.13
2018-12-17T12:41:09.435Z,7.03
2018-12-17T12:43:38.695Z,7.13
2018-12-17T12:46:08.217Z,7.93
2018-12-17T12:48:37.770Z,6.80
2018-12-17T12:51:07.142Z,6.77
2018-12-17T12:53:36.087Z,9.57
2018-12-17T12:56:05.314Z,16.10
2018-12-17T12:58:34.167Z,8.80
2018-12-17T13:01:07.528Z,9.13
2018-12-17T13:03:34.546Z,25.07
2018-12-17T13:06:04.866Z,14.53
2018-12-17T13:08:34.182Z,7.70
2018-12-17T13:11:03.826Z,7.07
2018-12-17T13:13:32.379Z,6.17
2018-12-17T13:16:08.083Z,6.87
2018-12-17T13:18:38.099Z,5.97
2018-12-17T13:21:08.764Z,6.17
2018-12-17T13:23:38.249Z,7.00
2018-12-17T13:26:30.509Z,5.77
2018-12-17T13:29:04.211Z,6.40
2018-12-17T13:38:04.169Z,4.90
2018-12-17T13:40:33.983Z,12.30
2018-12-17T13:44:06.940Z,8.70
2018-12-17T13:46:36.479Z,5.37
2018-12-17T13:49:06.701Z,7.47
2018-12-17T13:54:50.665Z,7.97
2018-12-17T13:57:21.265Z,9.90
2018-12-17T13:59:51.621Z,12.87
2018-12-17T14:20:52.964Z,6.70
2018-12-17T14:23:21.398Z,6.30
2018-12-17T14:25:49.941Z,8.17
2018-12-17T14:28:18.446Z,8.13
2018-12-17T14:30:53.706Z,7.30
2018-12-17T14:33:22.208Z,6.97
2018-12-17T14:35:57.799Z,5.10
2018-12-17T14:38:53.366Z,5.87
2018-12-17T14:41:32.146Z,5.93
2018-12-17T14:53:24.545Z,18.77
2018-12-17T14:58:44.351Z,10.77
2018-12-17T15:01:12.693Z,19.53
2018-12-17T15:08:44.260Z,12.77
2018-12-17T15:26:52.938Z,10.77
2018-12-17T15:29:56.419Z,9.93
2018-12-17T15:32:29.992Z,9.40
2018-12-17T15:35:44.350Z,11.00
2018-12-17T15:38:14.309Z,11.80
2018-12-17T15:40:54.975Z,17.80
2018-12-17T15:49:12.889Z,26.50
2018-12-17T15:51:42.329Z,24.17
2018-12-17T15:54:12.846Z,24.00
2018-12-17T15:56:42.559Z,19.70
2018-12-17T15:59:12.472Z,21.53
2018-12-17T16:01:42.627Z,19.97
2018-12-17T16:04:12.334Z,19.60
2018-12-17T16:06:47.369Z,18.73
2018-12-17T16:09:30.904Z,36.60
2018-12-17T16:12:00.820Z,19.57
2018-12-17T16:14:31.089Z,54.97
2018-12-17T16:17:00.238Z,24.40
2018-12-17T16:19:29.055Z,25.97
2018-12-17T16:21:57.774Z,27.73
2018-12-17T16:30:20.904Z,35.07
2018-12-17T16:32:50.457Z,33.03
2018-12-17T16:35:36.588Z,33.80
2018-12-17T16:38:11.855Z,36.03
2018-12-17T16:40:44.422Z,33.10
2018-12-17T16:43:14.027Z,33.93
2018-12-17T16:45:43.403Z,39.63
2018-12-17T16:48:12.259Z,35.37
2018-12-17T16:50:42.305Z,42.67
2018-12-17T16:53:11.227Z,33.77
2018-12-17T16:55:40.020Z,35.20
2018-12-17T16:58:11.034Z,33.00
2018-12-17T17:01:11.306Z,33.20
2018-12-17T17:03:40.151Z,34.23
2018-12-17T17:06:08.838Z,33.23
2018-12-17T17:08:37.899Z,32.30
2018-12-17T17:11:10.438Z,47.67
2018-12-17T17:13:41.037Z,46.87
2018-12-17T17:16:10.575Z,35.63
2018-12-17T17:18:40.389Z,27.27
2018-12-17T17:26:48.941Z,36.43
2018-12-17T17:29:22.531Z,33.33
2018-12-17T17:35:06.544Z,51.50
2018-12-17T17:40:39.147Z,56.63
2018-12-17T17:43:07.733Z,55.30
2018-12-17T17:45:36.679Z,46.23
2018-12-17T17:48:05.693Z,48.07
2018-12-17T17:50:34.529Z,40.37
2018-12-17T17:53:03.372Z,52.60
2018-12-17T17:55:31.891Z,52.37
2018-12-17T17:58:00.488Z,58.77
2018-12-17T18:00:29.192Z,55.20
2018-12-17T18:02:57.890Z,33.50
2018-12-17T18:05:26.781Z,21.07
2018-12-17T18:07:55.719Z,19.30
2018-12-17T18:10:24.331Z,16.77
2018-12-17T18:12:53.656Z,11.53
2018-12-17T18:17:58.523Z,10.97
2018-12-17T18:20:27.713Z,10.73
2018-12-17T18:22:59.053Z,9.17
2018-12-17T18:25:28.147Z,10.57
2018-12-17T18:27:57.141Z,11.07
2018-12-17T18:30:26.633Z,9.30
2018-12-17T18:32:55.790Z,13.13
2018-12-17T18:35:25.083Z,12.63
2018-12-17T18:37:54.413Z,7.23
2018-12-17T18:40:23.645Z,6.20
2018-12-17T18:42:52.612Z,6.23
2018-12-17T18:45:21.227Z,6.10
2018-12-17T18:47:50.417Z,4.20
2018-12-17T18:50:19.290Z,16.23
2018-12-17T18:52:47.956Z,3.50
2018-12-17T18:57:51.100Z,4.00
2018-12-17T19:00:20.034Z,3.57
2018-12-17T19:02:49.089Z,3.13
2018-12-17T19:05:17.627Z,3.97
2018-12-17T19:07:46.425Z,5.60
2018-12-17T19:10:15.227Z,7.03
2018-12-17T19:12:44.239Z,8.70
2018-12-17T19:15:12.752Z,8.70
2018-12-17T19:17:48.344Z,10.20
2018-12-17T19:20:17.692Z,10.13
2018-12-17T19:22:46.763Z,11.37
2018-12-17T19:25:15.859Z,9.53
2018-12-17T19:27:44.721Z,8.93
2018-12-17T19:30:13.671Z,10.27
2018-12-17T19:32:42.581Z,10.47
2018-12-17T19:35:11.366Z,11.20
2018-12-17T19:37:40.518Z,8.20
2018-12-17T19:40:08.949Z,11.80
2018-12-17T19:42:38.004Z,14.63
2018-12-17T19:45:06.462Z,9.43
2018-12-17T19:47:35.042Z,11.20
2018-12-17T19:50:03.959Z,8.67
2018-12-17T19:52:32.404Z,10.77
2018-12-17T19:55:00.896Z,13.23
2018-12-17T19:57:29.375Z,12.73
2018-12-17T19:59:58.113Z,11.20
2018-12-17T20:02:27.010Z,12.03
2018-12-17T20:04:55.562Z,11.63
2018-12-17T20:07:24.244Z,12.27
2018-12-17T20:09:53.233Z,19.17
2018-12-17T20:12:21.818Z,59.07
2018-12-17T20:14:50.261Z,15.53
2018-12-17T20:17:18.937Z,12.63
2018-12-17T20:19:47.491Z,14.83
2018-12-17T20:22:15.911Z,14.07
2018-12-17T20:24:45.063Z,12.27
2018-12-17T20:27:13.572Z,12.77
2018-12-17T20:29:42.131Z,13.80
2018-12-17T20:32:10.651Z,13.40
2018-12-17T20:34:39.742Z,23.50
2018-12-17T20:37:08.393Z,24.33
2018-12-17T20:39:36.847Z,24.80
2018-12-17T20:42:05.508Z,21.77
2018-12-17T20:44:34.064Z,24.53
2018-12-17T20:47:03.417Z,22.43
2018-12-17T20:49:32.137Z,16.67
2018-12-17T20:52:00.798Z,23.10
2018-12-17T20:54:29.423Z,41.90
2018-12-17T20:56:58.272Z,33.07
2018-12-17T20:59:26.922Z,30.83
2018-12-17T21:01:55.511Z,27.80
2018-12-17T21:04:24.287Z,26.57
2018-12-17T21:06:53.111Z,26.27
2018-12-17T21:09:22.081Z,25.73
2018-12-17T21:11:52.525Z,25.97
2018-12-17T21:14:26.378Z,26.87
2018-12-17T21:17:01.880Z,25.47
2018-12-17T21:19:31.807Z,18.97
2018-12-17T21:22:00.741Z,24.90
2018-12-17T21:24:29.640Z,20.30
2018-12-17T21:26:58.559Z,23.43
2018-12-17T21:29:30.715Z,24.43
2018-12-17T21:31:59.853Z,23.53
2018-12-17T21:34:32.016Z,23.40
2018-12-17T21:37:03.721Z,21.20
2018-12-17T21:42:12.199Z,17.73
2018-12-17T21:44:41.177Z,19.20
2018-12-17T21:47:10.741Z,18.90
2018-12-17T21:49:40.760Z,20.13
2018-12-17T21:52:09.390Z,18.30
2018-12-17T21:59:45.352Z,19.40
2018-12-17T22:02:16.661Z,20.20
2018-12-17T22:04:46.569Z,18.90
2018-12-17T22:07:19.804Z,19.33
2018-12-17T22:09:48.594Z,17.27
2018-12-17T22:12:17.824Z,12.93
2018-12-17T22:14:54.591Z,16.75
2018-12-17T22:17:23.935Z,13.00
2018-12-17T22:19:53.159Z,12.63
2018-12-17T22:22:21.868Z,12.73
2018-12-17T22:28:59.370Z,14.57
2018-12-17T22:37:10.472Z,13.23
2018-12-17T22:39:39.842Z,11.00
2018-12-17T22:42:09.824Z,11.43
2018-12-17T22:44:38.760Z,12.50
2018-12-17T22:47:07.291Z,9.97
2018-12-17T22:49:35.951Z,13.23
2018-12-17T22:52:04.612Z,15.40
2018-12-17T22:54:34.309Z,14.50
2018-12-17T22:57:03.074Z,12.20
2018-12-17T22:59:31.845Z,11.83
2018-12-17T23:02:01.482Z,10.47
2018-12-17T23:04:30.113Z,10.87
2018-12-17T23:07:02.665Z,9.27
2018-12-17T23:09:42.411Z,9.10
2018-12-17T23:12:22.304Z,8.10
2018-12-17T23:15:02.251Z,6.50
2018-12-17T23:17:41.090Z,6.77
2018-12-17T23:20:10.604Z,5.50
2018-12-17T23:22:47.913Z,5.43
2018-12-17T23:25:16.750Z,5.63
2018-12-17T23:27:50.041Z,5.53
2018-12-17T23:30:26.850Z,6.07
2018-12-17T23:32:55.774Z,7.07
2018-12-17T23:35:24.799Z,6.80
2018-12-17T23:37:56.421Z,7.33
2018-12-17T23:40:25.792Z,7.60
2018-12-17T23:42:54.581Z,8.37
2018-12-17T23:45:24.525Z,6.40
2018-12-17T23:47:54.744Z,7.20
2018-12-17T23:50:23.254Z,6.37
2018-12-17T23:52:51.935Z,5.63
2018-12-17T23:55:21.109Z,6.10
2018-12-17T23:57:49.668Z,5.80
